Time;durP1;ratioP1;P1;durP2;ratioP2;P2;SDS_P1;SDS_P2;PMS_P1;PMS_P2;Temp;Humidity;BMP_temperature;BMP_pressure;BME280_temperature;BME280_humidity;BME280_pressure;Samples;Min_cycle;Max_cycle;Signal;HPM_P1;HPM_P2
2023/09/28 00:02:52;;;;;;;6.97;5.07;;;12.30;99.90;;;;;;4952167;28;20238;-68
2023/09/28 00:05:19;;;;;;;12.37;5.57;;;12.30;99.90;;;;;;4966754;28;20186;-68
2023/09/28 00:07:45;;;;;;;8.53;5.30;;;12.30;99.90;;;;;;4951874;28;20202;-69
2023/09/28 00:10:15;;;;;;;8.20;5.33;;;12.30;99.90;;;;;;4951208;28;20191;-69
2023/09/28 00:12:52;;;;;;;12.73;5.53;;;12.40;99.90;;;;;;4954118;28;20206;-69
2023/09/28 00:15:19;;;;;;;9.83;5.37;;;12.30;99.90;;;;;;4955671;28;20178;-69
2023/09/28 00:17:47;;;;;;;9.73;6.00;;;12.30;99.90;;;;;;4955435;28;20344;-69
2023/09/28 00:20:18;;;;;;;8.33;5.37;;;12.30;99.90;;;;;;4954997;28;20175;-69
2023/09/28 00:22:44;;;;;;;7.40;5.10;;;12.40;99.90;;;;;;4955526;28;20187;-69
2023/09/28 00:25:11;;;;;;;9.23;5.20;;;12.40;99.90;;;;;;4947520;28;20222;-68
2023/09/28 00:27:38;;;;;;;16.30;5.63;;;12.40;99.90;;;;;;4955467;28;20211;-69
2023/09/28 00:30:12;;;;;;;9.77;5.93;;;12.30;99.90;;;;;;4962647;28;20270;-70
2023/09/28 00:32:38;;;;;;;7.63;4.73;;;12.30;99.90;;;;;;4955199;28;20283;-70
2023/09/28 00:35:04;;;;;;;8.80;5.33;;;12.40;99.90;;;;;;4955254;28;20198;-70
2023/09/28 00:37:31;;;;;;;11.40;5.70;;;12.40;99.90;;;;;;4955198;28;20214;-70
2023/09/28 00:39:56;;;;;;;8.17;5.17;;;12.40;99.90;;;;;;4954576;28;20182;-70
2023/09/28 00:42:22;;;;;;;13.37;5.33;;;12.40;99.90;;;;;;4955370;28;20190;-70
2023/09/28 00:44:48;;;;;;;8.83;5.50;;;12.30;99.90;;;;;;4955205;28;20250;-70
2023/09/28 00:47:15;;;;;;;8.43;5.40;;;12.30;99.90;;;;;;4954852;28;20297;-70
2023/09/28 00:49:43;;;;;;;8.83;5.50;;;12.30;99.90;;;;;;4954271;28;20190;-70
2023/09/28 00:52:10;;;;;;;9.67;5.37;;;12.30;99.90;;;;;;4954795;28;20233;-70
2023/09/28 00:54:38;;;;;;;10.20;5.73;;;12.30;99.90;;;;;;4955065;28;20193;-70
2023/09/28 00:57:05;;;;;;;9.70;5.30;;;12.30;99.90;;;;;;4954747;28;20237;-70
2023/09/28 00:59:31;;;;;;;10.50;5.00;;;12.20;99.90;;;;;;4954292;28;20187;-70
2023/09/28 01:01:57;;;;;;;8.83;5.50;;;12.20;99.90;;;;;;4954665;28;20673;-70
2023/09/28 01:04:23;;;;;;;8.53;5.20;;;12.20;99.90;;;;;;4954667;28;20561;-70
2023/09/28 01:06:48;;;;;;;8.87;5.47;;;12.20;99.90;;;;;;4954749;28;20222;-68
2023/09/28 01:09:15;;;;;;;13.90;6.20;;;12.20;99.90;;;;;;4953948;28;20198;-68
2023/09/28 01:11:41;;;;;;;11.33;6.03;;;12.10;99.90;;;;;;4954559;28;20198;-68
2023/09/28 01:14:07;;;;;;;9.40;5.63;;;12.10;99.90;;;;;;4954542;28;20221;-68
2023/09/28 01:16:33;;;;;;;7.97;5.50;;;12.20;99.90;;;;;;4954610;28;20241;-68
2023/09/28 01:18:59;;;;;;;10.23;5.70;;;12.20;99.90;;;;;;4953618;28;20183;-68
2023/09/28 01:21:24;;;;;;;9.63;6.03;;;12.20;99.90;;;;;;4954574;29;20208;-69
2023/09/28 01:23:51;;;;;;;10.30;5.73;;;12.10;99.90;;;;;;4953417;28;20325;-68
2023/09/28 01:26:18;;;;;;;9.30;5.57;;;12.20;99.90;;;;;;4954171;28;20285;-68
2023/09/28 01:28:43;;;;;;;9.60;5.80;;;12.10;99.90;;;;;;4961669;28;20191;-68
2023/09/28 01:31:10;;;;;;;9.33;6.17;;;12.10;99.90;;;;;;4954146;28;20721;-68
2023/09/28 01:33:35;;;;;;;11.90;6.37;;;12.20;99.90;;;;;;4954316;28;20214;-68
2023/09/28 01:36:01;;;;;;;9.17;5.80;;;12.20;99.90;;;;;;4953978;28;20805;-68
2023/09/28 01:38:38;;;;;;;8.30;5.63;;;12.20;99.90;;;;;;4953653;28;20182;-68
2023/09/28 01:41:04;;;;;;;11.77;5.37;;;12.30;99.90;;;;;;4953972;28;20550;-68
2023/09/28 01:43:29;;;;;;;9.33;5.60;;;12.30;99.90;;;;;;4954154;28;20210;-68
2023/09/28 01:45:55;;;;;;;7.27;5.03;;;12.30;99.90;;;;;;4953989;28;20326;-68
2023/09/28 01:48:21;;;;;;;9.93;5.53;;;12.30;99.90;;;;;;4953132;28;20183;-68
2023/09/28 01:50:47;;;;;;;7.40;4.93;;;12.30;99.90;;;;;;4953945;29;20648;-68
2023/09/28 01:53:12;;;;;;;6.70;4.77;;;12.30;99.90;;;;;;4953848;28;20190;-68
2023/09/28 01:55:38;;;;;;;8.00;5.37;;;12.20;99.90;;;;;;4953862;28;20274;-68
2023/09/28 01:58:07;;;;;;;9.63;5.73;;;12.20;99.90;;;;;;4953627;28;20665;-68
2023/09/28 02:00:36;;;;;;;10.50;5.40;;;12.20;99.90;;;;;;4953801;28;20257;-68
2023/09/28 02:03:08;;;;;;;9.40;5.60;;;12.20;99.90;;;;;;4953406;28;20195;-68
2023/09/28 02:05:34;;;;;;;9.27;5.23;;;12.20;99.90;;;;;;4953761;28;20179;-68
2023/09/28 02:08:02;;;;;;;9.70;5.63;;;12.20;99.90;;;;;;4953331;28;20229;-68
2023/09/28 02:10:28;;;;;;;8.57;6.03;;;12.20;99.90;;;;;;4956971;28;20181;-69
2023/09/28 02:12:55;;;;;;;10.87;5.60;;;12.20;99.90;;;;;;4957573;28;20216;-69
2023/09/28 02:15:22;;;;;;;13.87;5.17;;;12.20;99.90;;;;;;4961287;28;20182;-69
2023/09/28 02:17:48;;;;;;;12.23;6.20;;;12.20;99.90;;;;;;4953188;28;20571;-69
2023/09/28 02:20:15;;;;;;;10.80;5.93;;;12.10;99.90;;;;;;4950421;28;20313;-69
2023/09/28 02:22:46;;;;;;;10.83;6.10;;;12.10;99.90;;;;;;4953410;28;20210;-68
2023/09/28 02:25:18;;;;;;;11.50;5.70;;;12.10;99.90;;;;;;4976942;28;20584;-69
2023/09/28 02:27:45;;;;;;;9.80;6.50;;;12.10;99.90;;;;;;4961260;28;20649;-69
2023/09/28 02:30:12;;;;;;;10.33;6.13;;;12.10;99.90;;;;;;4952377;28;20186;-69
2023/09/28 02:32:43;;;;;;;9.20;5.90;;;12.20;99.90;;;;;;4953076;28;20222;-69
2023/09/28 02:35:10;;;;;;;10.33;5.97;;;12.20;99.90;;;;;;4952903;28;20179;-69
2023/09/28 02:37:36;;;;;;;8.80;6.13;;;12.20;99.90;;;;;;4953015;28;20217;-69
2023/09/28 02:40:05;;;;;;;10.93;6.13;;;12.20;99.90;;;;;;4952281;28;20191;-69
2023/09/28 02:42:32;;;;;;;9.47;5.93;;;12.30;99.90;;;;;;4957599;28;20184;-69
2023/09/28 02:44:58;;;;;;;9.13;6.13;;;12.30;99.90;;;;;;4964564;28;20601;-69
2023/09/28 02:47:24;;;;;;;9.90;6.23;;;12.30;99.90;;;;;;4952848;29;20225;-69
2023/09/28 02:49:50;;;;;;;9.23;6.13;;;12.40;99.90;;;;;;4952136;28;20683;-69
2023/09/28 02:52:16;;;;;;;12.63;6.50;;;12.40;99.90;;;;;;4952674;28;20573;-69
2023/09/28 02:54:42;;;;;;;11.10;6.07;;;12.50;99.90;;;;;;4952878;28;20648;-68
2023/09/28 02:57:07;;;;;;;13.03;5.97;;;12.50;99.90;;;;;;4960550;28;20693;-70
2023/09/28 02:59:33;;;;;;;8.27;5.50;;;12.60;99.90;;;;;;4956733;28;20204;-69
2023/09/28 03:01:58;;;;;;;9.50;5.77;;;12.50;99.90;;;;;;4956009;28;20225;-69
2023/09/28 03:04:24;;;;;;;14.27;6.70;;;12.60;99.90;;;;;;4948210;28;20204;-69
2023/09/28 03:06:52;;;;;;;10.13;6.30;;;12.50;99.90;;;;;;4963981;28;20248;-69
2023/09/28 03:09:19;;;;;;;9.90;5.90;;;12.50;99.90;;;;;;4961500;28;20187;-69
2023/09/28 03:11:45;;;;;;;14.10;5.73;;;12.50;99.90;;;;;;4952450;28;20229;-69
2023/09/28 03:14:11;;;;;;;9.97;5.90;;;12.50;99.90;;;;;;4952379;28;20198;-69
2023/09/28 03:16:37;;;;;;;12.13;6.30;;;12.60;99.90;;;;;;4967264;28;20221;-69
2023/09/28 03:19:03;;;;;;;12.30;6.40;;;12.60;99.90;;;;;;4951567;28;20643;-69
2023/09/28 03:21:29;;;;;;;9.47;6.40;;;12.60;99.90;;;;;;4952391;28;20178;-69
2023/09/28 03:24:01;;;;;;;11.53;6.10;;;12.60;99.90;;;;;;4952428;28;20190;-70
2023/09/28 03:26:30;;;;;;;11.47;5.90;;;12.60;99.90;;;;;;4944900;28;20194;-67
2023/09/28 03:28:57;;;;;;;7.60;5.40;;;12.60;99.90;;;;;;4951566;28;20182;-68
2023/09/28 03:31:27;;;;;;;8.77;5.80;;;12.60;99.90;;;;;;4952004;28;20201;-68
2023/09/28 03:33:55;;;;;;;11.20;6.10;;;12.50;99.90;;;;;;4944221;28;20704;-68
2023/09/28 03:36:22;;;;;;;9.73;5.67;;;12.60;99.90;;;;;;4952035;28;20245;-68
2023/09/28 03:38:48;;;;;;;11.97;6.60;;;12.60;99.90;;;;;;4951561;28;20198;-68
2023/09/28 03:41:14;;;;;;;9.77;5.47;;;12.60;99.90;;;;;;4952114;28;20207;-68
2023/09/28 03:43:39;;;;;;;9.03;5.17;;;12.50;99.90;;;;;;4952113;28;20559;-68
2023/09/28 03:46:05;;;;;;;9.27;5.47;;;12.60;99.90;;;;;;4951521;28;20213;-68
2023/09/28 03:48:31;;;;;;;11.10;5.77;;;12.50;99.90;;;;;;4947114;28;20179;-68
2023/09/28 03:50:57;;;;;;;8.53;5.23;;;12.50;99.90;;;;;;4948415;28;20207;-68
2023/09/28 03:53:22;;;;;;;8.07;5.47;;;12.50;99.90;;;;;;4951105;28;20175;-68
2023/09/28 03:55:49;;;;;;;12.13;5.47;;;12.50;99.90;;;;;;4952026;28;20235;-68
2023/09/28 03:58:15;;;;;;;7.80;5.57;;;12.50;99.90;;;;;;4959125;28;20653;-68
2023/09/28 04:00:42;;;;;;;8.70;5.53;;;12.40;99.90;;;;;;4952059;28;20206;-68
2023/09/28 04:03:08;;;;;;;8.07;5.40;;;12.40;99.90;;;;;;4951797;28;20186;-68
2023/09/28 04:05:33;;;;;;;8.17;5.30;;;12.40;99.90;;;;;;4951928;28;20767;-68
2023/09/28 04:07:59;;;;;;;7.50;5.50;;;12.30;99.90;;;;;;4951415;28;20689;-69
2023/09/28 04:10:26;;;;;;;9.13;5.10;;;12.20;99.90;;;;;;4943640;28;20190;-68
2023/09/28 04:12:54;;;;;;;8.97;5.17;;;12.20;99.90;;;;;;4951788;28;20225;-68
2023/09/28 04:15:21;;;;;;;10.20;5.60;;;12.10;99.90;;;;;;4951829;28;20197;-69
2023/09/28 04:17:47;;;;;;;12.77;5.70;;;12.10;99.90;;;;;;4951777;28;20206;-69
2023/09/28 04:20:13;;;;;;;8.03;5.17;;;12.10;99.90;;;;;;4951262;28;20193;-69
2023/09/28 04:22:39;;;;;;;9.53;5.70;;;12.10;99.90;;;;;;4952060;28;20261;-68
2023/09/28 04:25:05;;;;;;;9.47;5.40;;;12.10;99.90;;;;;;4947771;28;20227;-68
2023/09/28 04:27:31;;;;;;;9.63;5.13;;;12.00;99.90;;;;;;4951657;28;20213;-68
2023/09/28 04:29:56;;;;;;;9.40;5.73;;;11.90;99.90;;;;;;4951279;28;20187;-68
2023/09/28 04:32:22;;;;;;;12.03;6.10;;;11.90;99.90;;;;;;4959629;28;20233;-69
2023/09/28 04:34:48;;;;;;;11.83;5.80;;;11.80;99.90;;;;;;4951816;28;20190;-69
2023/09/28 04:37:13;;;;;;;12.73;6.33;;;11.70;99.90;;;;;;4950901;28;20602;-69
2023/09/28 04:39:39;;;;;;;14.43;6.10;;;11.70;99.90;;;;;;4956463;28;20657;-69
2023/09/28 04:42:04;;;;;;;9.23;5.97;;;11.70;99.90;;;;;;4950437;28;20195;-70
2023/09/28 04:44:30;;;;;;;9.73;5.53;;;11.60;99.90;;;;;;4951750;28;20218;-69
2023/09/28 04:46:56;;;;;;;7.50;5.00;;;11.60;99.90;;;;;;4951555;28;20733;-69
2023/09/28 04:49:22;;;;;;;13.70;6.60;;;11.50;99.90;;;;;;4950760;28;20201;-68
2023/09/28 04:51:47;;;;;;;11.53;5.97;;;11.50;99.90;;;;;;4951389;28;20314;-69
2023/09/28 04:54:14;;;;;;;12.40;6.13;;;11.50;99.90;;;;;;4951479;28;20222;-69
2023/09/28 04:56:40;;;;;;;11.40;5.83;;;11.50;99.90;;;;;;4951502;28;20202;-70
2023/09/28 04:59:06;;;;;;;12.93;6.40;;;11.40;99.90;;;;;;4959920;28;20189;-69
2023/09/28 05:01:31;;;;;;;9.20;5.40;;;11.40;99.90;;;;;;4963151;28;20190;-69
2023/09/28 05:03:59;;;;;;;14.50;5.77;;;11.40;99.90;;;;;;4954877;28;20198;-69
2023/09/28 05:06:24;;;;;;;14.33;6.07;;;11.40;99.90;;;;;;4954497;28;20202;-68
2023/09/28 05:08:50;;;;;;;9.90;5.90;;;11.30;99.90;;;;;;4954070;28;20199;-69
2023/09/28 05:11:16;;;;;;;9.37;5.97;;;11.40;99.90;;;;;;4954337;28;20210;-68
2023/09/28 05:13:42;;;;;;;11.67;5.93;;;11.30;99.90;;;;;;4954722;29;20261;-69
2023/09/28 05:16:07;;;;;;;14.00;5.57;;;11.30;99.90;;;;;;4946473;28;20705;-69
2023/09/28 05:18:35;;;;;;;9.90;6.27;;;11.30;99.90;;;;;;4958336;28;20182;-69
2023/09/28 05:21:00;;;;;;;11.50;5.90;;;11.30;99.90;;;;;;4957403;28;20194;-68
2023/09/28 05:23:26;;;;;;;11.13;5.90;;;11.30;99.90;;;;;;4946563;28;20190;-68
2023/09/28 05:25:51;;;;;;;11.03;6.10;;;11.30;99.90;;;;;;4954021;28;20211;-69
2023/09/28 05:28:17;;;;;;;9.90;5.80;;;11.30;99.90;;;;;;4954965;28;20673;-69
2023/09/28 05:30:43;;;;;;;14.30;6.40;;;11.30;99.90;;;;;;4953892;28;20242;-69
2023/09/28 05:33:08;;;;;;;15.63;6.37;;;11.30;99.90;;;;;;4950603;28;20193;-68
2023/09/28 05:35:34;;;;;;;12.33;6.50;;;11.20;99.90;;;;;;4945906;28;20208;-69
2023/09/28 05:37:59;;;;;;;11.13;6.47;;;11.20;99.90;;;;;;4953293;28;20261;-69
2023/09/28 05:40:25;;;;;;;8.33;5.20;;;11.20;99.90;;;;;;4949378;28;20190;-69
2023/09/28 05:42:51;;;;;;;11.07;6.37;;;11.20;99.90;;;;;;4940935;28;20587;-68
2023/09/28 05:45:17;;;;;;;10.47;6.13;;;11.30;99.90;;;;;;4955461;28;20231;-69
2023/09/28 05:47:43;;;;;;;15.60;6.30;;;11.20;99.90;;;;;;4964566;28;20242;-69
2023/09/28 05:50:08;;;;;;;13.07;5.97;;;11.30;99.90;;;;;;4955808;28;20183;-69
2023/09/28 05:52:34;;;;;;;10.30;6.40;;;11.30;99.90;;;;;;4959896;28;20302;-68
2023/09/28 05:55:00;;;;;;;10.93;6.13;;;11.40;99.90;;;;;;4961040;28;20229;-69
2023/09/28 05:57:25;;;;;;;13.27;5.87;;;11.40;99.90;;;;;;4954349;28;20211;-69
2023/09/28 05:59:51;;;;;;;9.07;6.20;;;11.50;99.90;;;;;;4959418;28;20208;-69
2023/09/28 06:02:21;;;;;;;9.70;6.00;;;11.50;99.90;;;;;;4954440;28;20190;-69
2023/09/28 06:04:47;;;;;;;10.07;5.80;;;11.60;99.90;;;;;;4953238;28;20297;-69
2023/09/28 06:07:13;;;;;;;13.10;6.53;;;11.70;99.90;;;;;;4952698;28;20293;-68
2023/09/28 06:09:39;;;;;;;11.63;6.60;;;11.70;99.90;;;;;;4951607;28;20190;-68
2023/09/28 06:12:06;;;;;;;9.67;5.83;;;11.80;99.90;;;;;;4968638;28;20217;-68
2023/09/28 06:14:32;;;;;;;15.20;6.60;;;11.90;99.90;;;;;;4952938;28;20178;-68
2023/09/28 06:16:58;;;;;;;12.80;6.40;;;12.10;99.90;;;;;;4952616;28;20218;-68
2023/09/28 06:19:24;;;;;;;10.43;6.17;;;12.30;99.90;;;;;;4954865;28;20188;-68
2023/09/28 06:21:49;;;;;;;14.57;6.33;;;12.50;99.90;;;;;;4963822;28;20189;-68
2023/09/28 06:24:15;;;;;;;16.00;6.30;;;12.60;99.90;;;;;;4953814;28;20679;-68
2023/09/28 06:26:40;;;;;;;11.20;6.17;;;12.70;99.90;;;;;;4965692;28;20221;-68
2023/09/28 06:29:06;;;;;;;12.80;6.40;;;12.90;99.90;;;;;;4955439;28;20234;-68
2023/09/28 06:31:33;;;;;;;13.33;5.70;;;13.10;99.90;;;;;;4974368;28;20209;-68
2023/09/28 06:33:58;;;;;;;13.70;6.30;;;13.20;99.90;;;;;;4959686;28;20185;-68
2023/09/28 06:36:28;;;;;;;12.20;5.90;;;13.30;99.90;;;;;;4949211;28;20285;-68
2023/09/28 06:38:54;;;;;;;12.03;5.03;;;13.40;99.90;;;;;;4947445;28;20277;-68
2023/09/28 06:41:20;;;;;;;12.90;5.93;;;13.50;99.90;;;;;;4949539;28;20659;-68
2023/09/28 06:43:48;;;;;;;9.67;5.20;;;13.50;99.90;;;;;;4946852;28;20240;-69
2023/09/28 06:46:14;;;;;;;10.80;5.97;;;13.50;99.90;;;;;;4952087;28;20206;-69
2023/09/28 06:48:39;;;;;;;14.40;6.07;;;13.60;99.90;;;;;;4951138;28;20349;-69
2023/09/28 06:51:05;;;;;;;11.80;5.80;;;13.60;99.90;;;;;;4951801;28;20717;-69
2023/09/28 06:53:31;;;;;;;12.80;5.90;;;13.70;99.90;;;;;;4966712;28;20550;-68
2023/09/28 06:55:59;;;;;;;13.37;5.57;;;13.90;99.90;;;;;;4974722;28;20203;-69
2023/09/28 06:58:25;;;;;;;11.93;6.37;;;14.00;99.90;;;;;;4973522;28;20682;-69
2023/09/28 07:00:52;;;;;;;11.57;6.40;;;14.20;99.90;;;;;;4951937;28;20190;-69
2023/09/28 07:03:19;;;;;;;10.60;6.47;;;14.40;99.90;;;;;;4949647;28;20622;-68
2023/09/28 07:05:45;;;;;;;14.07;7.50;;;14.60;99.90;;;;;;4940520;28;20195;-67
2023/09/28 07:08:11;;;;;;;14.30;6.27;;;14.60;99.90;;;;;;4949050;28;20555;-67
2023/09/28 07:10:36;;;;;;;14.50;5.83;;;14.60;99.90;;;;;;4956587;28;20653;-67
2023/09/28 07:13:05;;;;;;;13.20;5.77;;;14.60;99.90;;;;;;4962663;28;20194;-68
2023/09/28 07:15:35;;;;;;;11.50;6.30;;;14.70;99.90;;;;;;4951904;28;20187;-66
2023/09/28 07:18:01;;;;;;;10.97;6.23;;;14.70;99.90;;;;;;4958568;28;20199;-67
2023/09/28 07:20:27;;;;;;;17.10;7.00;;;15.00;99.90;;;;;;4968906;28;20693;-67
2023/09/28 07:22:53;;;;;;;14.93;6.30;;;15.30;99.90;;;;;;4955459;28;20242;-67
2023/09/28 07:25:19;;;;;;;14.80;7.57;;;15.70;99.90;;;;;;4951462;28;20226;-67
2023/09/28 07:27:45;;;;;;;12.00;6.80;;;16.10;99.90;;;;;;4951632;28;20305;-67
2023/09/28 07:30:11;;;;;;;12.03;5.73;;;16.40;99.90;;;;;;4950668;28;20194;-67
2023/09/28 07:32:38;;;;;;;12.33;5.73;;;16.70;99.90;;;;;;4951372;28;20756;-67
2023/09/28 07:35:04;;;;;;;11.60;5.90;;;17.10;99.90;;;;;;4951179;28;20555;-67
2023/09/28 07:37:30;;;;;;;12.63;6.23;;;17.30;99.90;;;;;;4951214;28;20225;-67
2023/09/28 07:39:56;;;;;;;10.00;5.60;;;17.60;99.90;;;;;;4965599;28;20197;-67
2023/09/28 07:42:23;;;;;;;13.77;5.43;;;17.80;99.90;;;;;;4951263;28;20190;-67
2023/09/28 07:44:51;;;;;;;14.10;6.17;;;18.10;99.90;;;;;;4957654;28;20670;-68
2023/09/28 07:47:18;;;;;;;13.13;5.40;;;18.40;99.90;;;;;;4968306;28;20233;-68
2023/09/28 07:49:44;;;;;;;11.97;5.70;;;18.60;99.90;;;;;;4956837;28;20205;-67
2023/09/28 07:52:10;;;;;;;8.07;5.10;;;18.80;99.90;;;;;;4941851;28;20284;-67
2023/09/28 07:54:36;;;;;;;9.40;5.80;;;19.10;99.90;;;;;;4955722;28;20661;-67
2023/09/28 07:57:05;;;;;;;11.83;5.63;;;19.40;99.90;;;;;;4954610;28;20518;-67
2023/09/28 07:59:32;;;;;;;10.50;5.43;;;19.70;99.90;;;;;;4962465;28;20645;-68
2023/09/28 08:01:58;;;;;;;14.10;5.20;;;20.00;99.90;;;;;;4947135;28;20198;-67
2023/09/28 08:04:23;;;;;;;11.70;5.40;;;20.10;99.90;;;;;;4961727;28;20237;-67
2023/09/28 08:06:49;;;;;;;10.90;5.27;;;20.40;99.90;;;;;;4962678;28;20210;-68
2023/09/28 08:09:14;;;;;;;8.07;5.33;;;20.60;99.90;;;;;;4952191;28;20198;-68
2023/09/28 08:11:41;;;;;;;11.67;5.23;;;20.80;99.90;;;;;;4959160;28;20218;-69
2023/09/28 08:14:06;;;;;;;7.83;4.90;;;21.00;99.90;;;;;;4951080;28;20179;-69
2023/09/28 08:16:36;;;;;;;10.27;5.07;;;21.30;99.90;;;;;;4951283;28;20225;-69
2023/09/28 08:19:02;;;;;;;8.70;4.70;;;21.50;99.90;;;;;;4939223;28;20193;-68
2023/09/28 08:21:28;;;;;;;8.10;4.77;;;21.60;99.90;;;;;;4945803;28;20215;-68
2023/09/28 08:23:55;;;;;;;16.90;4.90;;;21.80;99.90;;;;;;4945621;28;20707;-69
2023/09/28 08:26:20;;;;;;;8.80;4.90;;;22.00;99.90;;;;;;4945009;28;20225;-68
2023/09/28 08:28:46;;;;;;;10.10;4.23;;;22.20;99.90;;;;;;4944879;28;20203;-68
2023/09/28 08:31:12;;;;;;;13.50;4.80;;;22.30;99.90;;;;;;4946702;28;20206;-68
2023/09/28 08:33:37;;;;;;;8.30;4.83;;;22.50;99.90;;;;;;4957835;28;20193;-68
2023/09/28 08:36:07;;;;;;;7.80;4.37;;;22.70;99.90;;;;;;4957214;28;20242;-68
2023/09/28 08:38:32;;;;;;;12.20;4.90;;;22.90;99.90;;;;;;4953945;28;20629;-69
2023/09/28 08:41:02;;;;;;;6.93;4.70;;;23.20;99.90;;;;;;4962142;28;20202;-69
2023/09/28 08:43:41;;;;;;;10.13;4.87;;;23.40;99.90;;;;;;4949953;28;20219;-68
2023/09/28 08:46:10;;;;;;;8.47;4.70;;;23.70;99.90;;;;;;4956915;28;20200;-68
2023/09/28 08:48:42;;;;;;;12.37;5.03;;;23.90;99.90;;;;;;4949244;28;20183;-68
2023/09/28 08:51:11;;;;;;;13.63;4.73;;;24.20;99.90;;;;;;4951394;28;20301;-67
2023/09/28 08:53:40;;;;;;;8.07;4.73;;;24.10;99.90;;;;;;4954302;28;20317;-67
2023/09/28 08:56:07;;;;;;;11.33;4.80;;;24.30;99.90;;;;;;4953973;28;20572;-67
2023/09/28 08:58:37;;;;;;;11.17;4.63;;;24.50;99.90;;;;;;4953193;28;20241;-67
2023/09/28 09:01:04;;;;;;;10.83;4.50;;;24.70;99.90;;;;;;4954107;28;20289;-68
2023/09/28 09:03:33;;;;;;;13.07;4.70;;;24.60;99.90;;;;;;4946398;28;20178;-68
2023/09/28 09:05:58;;;;;;;9.07;4.73;;;24.90;99.90;;;;;;4961670;28;20261;-67
2023/09/28 09:08:26;;;;;;;15.27;4.40;;;25.40;99.90;;;;;;4953698;28;20661;-69
2023/09/28 09:10:52;;;;;;;7.73;4.10;;;25.70;99.90;;;;;;4954076;28;20175;-68
2023/09/28 09:13:21;;;;;;;9.30;3.97;;;26.10;99.90;;;;;;4953849;28;20643;-66
2023/09/28 09:15:46;;;;;;;8.00;4.53;;;26.00;99.90;;;;;;4962025;28;20190;-69
2023/09/28 09:18:18;;;;;;;14.40;4.33;;;26.20;99.90;;;;;;4960985;28;20597;-66
2023/09/28 09:20:46;;;;;;;13.63;4.40;;;26.40;99.90;;;;;;4953963;28;20197;-66
2023/09/28 09:23:13;;;;;;;10.03;3.73;;;26.40;99.90;;;;;;4953656;28;20670;-67
2023/09/28 09:25:50;;;;;;;5.83;3.47;;;26.60;99.90;;;;;;4958334;28;20182;-66
2023/09/28 09:28:28;;;;;;;10.40;3.30;;;26.80;99.90;;;;;;4961124;28;20186;-69
2023/09/28 09:30:55;;;;;;;11.70;3.80;;;26.90;99.90;;;;;;4950322;28;20270;-69
2023/09/28 09:33:21;;;;;;;7.87;3.30;;;27.30;99.90;;;;;;4950729;28;20187;-67
2023/09/28 09:35:47;;;;;;;13.97;3.70;;;27.70;99.90;;;;;;4947895;28;20893;-69
2023/09/28 09:38:12;;;;;;;7.03;3.63;;;28.00;99.90;;;;;;4959705;28;20220;-68
2023/09/28 09:40:38;;;;;;;15.53;3.97;;;28.20;99.90;;;;;;4946542;28;20226;-67
2023/09/28 09:43:08;;;;;;;10.30;3.90;;;28.70;99.90;;;;;;4960771;28;20194;-66
2023/09/28 09:45:40;;;;;;;14.57;3.90;;;29.10;99.90;;;;;;4951544;28;20611;-66
2023/09/28 09:48:09;;;;;;;9.47;3.83;;;29.20;99.90;;;;;;4944699;28;20198;-67
2023/09/28 09:50:36;;;;;;;17.27;4.00;;;29.30;99.90;;;;;;4956684;28;20325;-66
2023/09/28 09:53:05;;;;;;;10.20;3.33;;;29.60;99.90;;;;;;4971501;28;20306;-66
2023/09/28 09:55:32;;;;;;;10.80;3.73;;;29.90;99.90;;;;;;4945420;28;20198;-67
2023/09/28 09:58:03;;;;;;;8.03;3.60;;;30.10;99.90;;;;;;4952910;28;20186;-68
2023/09/28 10:00:32;;;;;;;15.13;3.80;;;30.60;99.90;;;;;;4952294;28;20286;-67
2023/09/28 10:02:59;;;;;;;14.27;4.40;;;31.10;99.90;;;;;;4952870;28;20256;-67
2023/09/28 10:05:29;;;;;;;13.63;3.60;;;31.10;99.90;;;;;;4955182;28;20236;-68
2023/09/28 10:07:57;;;;;;;15.40;3.90;;;31.10;99.90;;;;;;4957517;28;20191;-68
2023/09/28 10:10:23;;;;;;;18.80;4.38;;;31.30;99.90;;;;;;4952241;28;20625;-68
2023/09/28 10:12:50;;;;;;;9.75;3.58;;;31.60;99.90;;;;;;4952742;28;20678;-69
2023/09/28 10:15:16;;;;;;;18.80;3.83;;;31.70;99.90;;;;;;4960695;28;20186;-68
2023/09/28 10:17:43;;;;;;;5.38;2.97;;;31.60;99.90;;;;;;4944783;28;20278;-68
2023/09/28 10:20:09;;;;;;;10.03;3.50;;;31.60;99.90;;;;;;4959801;28;20182;-68
2023/09/28 10:22:35;;;;;;;8.68;3.08;;;31.50;99.90;;;;;;4952588;28;20964;-69
2023/09/28 10:25:00;;;;;;;11.63;3.43;;;31.40;99.90;;;;;;4950945;28;20197;-69
2023/09/28 10:27:26;;;;;;;11.07;3.30;;;31.10;99.90;;;;;;4950290;28;20218;-68
2023/09/28 10:30:21;;;;;;;6.70;3.40;;;31.10;99.90;;;;;;4949937;28;20701;-68
2023/09/28 10:32:51;;;;;;;11.17;3.23;;;31.10;99.90;;;;;;4950709;28;20218;-69
2023/09/28 10:35:19;;;;;;;7.13;3.00;;;30.50;99.90;;;;;;4943684;29;20179;-69
2023/09/28 10:38:17;;;;;;;6.13;3.17;;;30.70;99.90;;;;;;4944536;28;20230;-69
2023/09/28 10:40:47;;;;;;;4.17;2.97;;;30.30;99.90;;;;;;4936766;28;20269;-69
2023/09/28 10:43:27;;;;;;;4.90;3.17;;;30.30;99.90;;;;;;4951098;28;20195;-68
2023/09/28 10:45:52;;;;;;;6.03;2.83;;;29.90;99.90;;;;;;4950543;28;20201;-68
2023/09/28 10:48:18;;;;;;;9.60;3.20;;;29.90;99.90;;;;;;4960951;28;20193;-68
2023/09/28 10:50:46;;;;;;;7.53;3.30;;;29.50;99.90;;;;;;4959910;28;20689;-68
2023/09/28 10:53:12;;;;;;;8.10;3.00;;;29.30;99.90;;;;;;4959769;28;20264;-68
2023/09/28 10:55:40;;;;;;;11.73;3.00;;;29.30;99.90;;;;;;4956337;28;20189;-68
2023/09/28 10:58:07;;;;;;;5.80;3.17;;;29.10;99.90;;;;;;4954007;28;20182;-68
2023/09/28 11:00:32;;;;;;;5.67;3.20;;;28.80;99.90;;;;;;4951852;29;20194;-69
2023/09/28 11:02:58;;;;;;;6.70;3.30;;;28.50;99.90;;;;;;4959982;28;20202;-69
2023/09/28 11:05:25;;;;;;;8.80;4.00;;;28.40;99.90;;;;;;4952900;28;20198;-69
2023/09/28 11:07:51;;;;;;;5.63;2.90;;;28.30;99.90;;;;;;4951462;28;20308;-70
2023/09/28 11:10:17;;;;;;;7.60;3.00;;;28.50;99.90;;;;;;4941922;28;20338;-69
2023/09/28 11:12:44;;;;;;;8.73;3.00;;;28.60;99.90;;;;;;4947257;28;20333;-69
2023/09/28 11:15:14;;;;;;;9.57;3.20;;;28.60;99.90;;;;;;4948940;28;20186;-68
2023/09/28 11:17:40;;;;;;;6.37;2.70;;;28.80;99.90;;;;;;4951368;28;20206;-69
2023/09/28 11:20:08;;;;;;;8.00;2.93;;;28.60;99.90;;;;;;4950774;28;20621;-68
2023/09/28 11:22:33;;;;;;;7.33;3.20;;;28.50;99.90;;;;;;4959267;28;20264;-68
2023/09/28 11:25:00;;;;;;;9.40;2.53;;;28.50;99.90;;;;;;4951358;28;20589;-68
2023/09/28 11:27:26;;;;;;;11.47;2.80;;;28.80;99.90;;;;;;4949495;28;20209;-69
2023/09/28 11:29:56;;;;;;;5.87;2.87;;;29.00;99.90;;;;;;4949057;28;20182;-69
2023/09/28 11:32:21;;;;;;;4.97;2.97;;;29.10;99.90;;;;;;4948456;29;20245;-68
2023/09/28 11:34:47;;;;;;;7.10;3.03;;;28.90;99.90;;;;;;4951067;28;20179;-69
2023/09/28 11:37:14;;;;;;;9.53;3.17;;;28.80;99.90;;;;;;4950716;28;20561;-67
2023/09/28 11:39:40;;;;;;;5.57;2.90;;;28.60;99.90;;;;;;4950342;28;20661;-68
2023/09/28 11:42:07;;;;;;;8.03;3.20;;;28.70;99.90;;;;;;4951158;29;20320;-68
2023/09/28 11:44:34;;;;;;;7.63;3.20;;;28.80;99.90;;;;;;4945843;28;20619;-69
2023/09/28 11:46:59;;;;;;;9.73;3.03;;;29.00;99.90;;;;;;4962945;28;20220;-69
2023/09/28 11:49:26;;;;;;;8.03;3.50;;;29.20;99.90;;;;;;4966142;28;20232;-67
2023/09/28 11:51:52;;;;;;;9.70;3.40;;;28.90;99.90;;;;;;4955864;28;20324;-69
2023/09/28 11:54:20;;;;;;;8.40;3.70;;;28.80;99.90;;;;;;4959746;28;20195;-69
2023/09/28 11:56:46;;;;;;;8.80;3.30;;;28.90;99.90;;;;;;4959420;28;20744;-69
2023/09/28 11:59:15;;;;;;;5.47;3.47;;;29.10;99.90;;;;;;4942869;28;20619;-68
2023/09/28 12:01:45;;;;;;;9.73;3.60;;;29.10;99.90;;;;;;4951344;28;20183;-69
2023/09/28 12:04:11;;;;;;;9.90;3.17;;;29.20;99.90;;;;;;4947007;28;20198;-68
2023/09/28 12:06:38;;;;;;;9.00;3.50;;;29.20;99.90;;;;;;4955323;28;20220;-69
2023/09/28 12:09:06;;;;;;;7.30;3.10;;;29.00;99.90;;;;;;4955631;28;20228;-67
2023/09/28 12:11:37;;;;;;;4.60;3.00;;;29.00;99.90;;;;;;4950453;28;20632;-67
2023/09/28 12:14:03;;;;;;;5.43;3.00;;;29.10;99.90;;;;;;4959824;28;20677;-68
2023/09/28 12:16:29;;;;;;;9.10;3.73;;;29.30;99.90;;;;;;4953272;28;20190;-66
2023/09/28 12:18:54;;;;;;;12.20;4.47;;;29.50;99.90;;;;;;4946523;29;20194;-68
2023/09/28 12:21:20;;;;;;;5.30;2.87;;;29.60;99.90;;;;;;4965315;28;20201;-67
2023/09/28 12:23:46;;;;;;;7.87;3.17;;;29.80;99.90;;;;;;4960099;28;20253;-66
2023/09/28 12:26:13;;;;;;;5.57;2.90;;;29.90;99.90;;;;;;4962588;28;20253;-66
2023/09/28 12:28:39;;;;;;;3.67;2.43;;;29.90;99.90;;;;;;4951947;28;20259;-66
2023/09/28 12:31:05;;;;;;;4.73;2.50;;;29.90;99.90;;;;;;4952903;29;20234;-65
2023/09/28 12:33:31;;;;;;;10.53;3.07;;;29.90;99.90;;;;;;4956804;28;20182;-68
2023/09/28 12:35:58;;;;;;;5.10;2.20;;;29.90;99.90;;;;;;4951069;28;20261;-68
2023/09/28 12:38:24;;;;;;;7.53;2.47;;;29.80;99.90;;;;;;4953632;28;20616;-67
2023/09/28 12:40:49;;;;;;;9.07;2.73;;;29.80;99.90;;;;;;4954454;28;20274;-66
2023/09/28 12:43:16;;;;;;;7.03;2.50;;;29.70;99.90;;;;;;4962411;28;20666;-67